sensor_id;sensor_type;location;lat;lon;timestamp;P1;durP1;ratioP1;P2;durP2;ratioP2
14975;SDS011;7584;60.468;25.126;2023-05-16T00:01:07;3.33;;;2.20;;
14975;SDS011;7584;60.468;25.126;2023-05-16T00:03:33;3.87;;;1.77;;
14975;SDS011;7584;60.468;25.126;2023-05-16T00:05:58;6.23;;;1.63;;
14975;SDS011;7584;60.468;25.126;2023-05-16T00:08:26;4.07;;;2.20;;
14975;SDS011;7584;60.468;25.126;2023-05-16T00:10:51;5.60;;;2.13;;
14975;SDS011;7584;60.468;25.126;2023-05-16T00:13:17;2.10;;;1.90;;
14975;SDS011;7584;60.468;25.126;2023-05-16T00:15:46;6.83;;;2.60;;
14975;SDS011;7584;60.468;25.126;2023-05-16T00:18:11;5.10;;;2.40;;
14975;SDS011;7584;60.468;25.126;2023-05-16T00:20:40;7.00;;;2.00;;
14975;SDS011;7584;60.468;25.126;2023-05-16T00:23:06;5.10;;;2.50;;
14975;SDS011;7584;60.468;25.126;2023-05-16T00:25:31;2.93;;;2.03;;
14975;SDS011;7584;60.468;25.126;2023-05-16T00:27:56;4.60;;;2.17;;
14975;SDS011;7584;60.468;25.126;2023-05-16T00:30:22;5.97;;;2.40;;
14975;SDS011;7584;60.468;25.126;2023-05-16T00:32:47;2.63;;;1.73;;
14975;SDS011;7584;60.468;25.126;2023-05-16T00:35:12;6.70;;;2.80;;
14975;SDS011;7584;60.468;25.126;2023-05-16T00:37:38;3.57;;;2.33;;
14975;SDS011;7584;60.468;25.126;2023-05-16T00:40:03;3.03;;;2.10;;
14975;SDS011;7584;60.468;25.126;2023-05-16T00:42:29;5.80;;;2.60;;
14975;SDS011;7584;60.468;25.126;2023-05-16T00:44:55;4.93;;;2.60;;
14975;SDS011;7584;60.468;25.126;2023-05-16T00:47:20;5.93;;;2.30;;
14975;SDS011;7584;60.468;25.126;2023-05-16T00:49:45;7.80;;;2.80;;
14975;SDS011;7584;60.468;25.126;2023-05-16T00:52:11;3.30;;;2.50;;
14975;SDS011;7584;60.468;25.126;2023-05-16T00:54:36;3.93;;;2.10;;
14975;SDS011;7584;60.468;25.126;2023-05-16T00:57:02;3.37;;;2.63;;
14975;SDS011;7584;60.468;25.126;2023-05-16T00:59:28;3.37;;;2.33;;
14975;SDS011;7584;60.468;25.126;2023-05-16T01:01:54;5.93;;;2.53;;
14975;SDS011;7584;60.468;25.126;2023-05-16T01:04:20;5.17;;;2.13;;
14975;SDS011;7584;60.468;25.126;2023-05-16T01:06:45;5.03;;;2.53;;
14975;SDS011;7584;60.468;25.126;2023-05-16T01:09:10;5.47;;;2.40;;
14975;SDS011;7584;60.468;25.126;2023-05-16T01:14:10;2.97;;;2.50;;
14975;SDS011;7584;60.468;25.126;2023-05-16T01:16:41;5.53;;;2.77;;
14975;SDS011;7584;60.468;25.126;2023-05-16T01:19:13;5.37;;;2.10;;
14975;SDS011;7584;60.468;25.126;2023-05-16T01:21:48;2.83;;;2.60;;
14975;SDS011;7584;60.468;25.126;2023-05-16T01:26:43;4.80;;;2.10;;
14975;SDS011;7584;60.468;25.126;2023-05-16T01:29:09;4.00;;;2.93;;
14975;SDS011;7584;60.468;25.126;2023-05-16T01:31:34;4.63;;;2.30;;
14975;SDS011;7584;60.468;25.126;2023-05-16T01:33:59;4.53;;;2.20;;
14975;SDS011;7584;60.468;25.126;2023-05-16T01:44:59;4.60;;;2.30;;
14975;SDS011;7584;60.468;25.126;2023-05-16T01:46:57;5.60;;;2.33;;
14975;SDS011;7584;60.468;25.126;2023-05-16T01:52:10;2.63;;;2.20;;
14975;SDS011;7584;60.468;25.126;2023-05-16T01:54:37;3.57;;;2.00;;
14975;SDS011;7584;60.468;25.126;2023-05-16T01:57:07;6.93;;;2.37;;
14975;SDS011;7584;60.468;25.126;2023-05-16T01:59:32;5.57;;;2.00;;
14975;SDS011;7584;60.468;25.126;2023-05-16T02:01:58;4.40;;;2.07;;
14975;SDS011;7584;60.468;25.126;2023-05-16T02:04:23;5.50;;;2.53;;
14975;SDS011;7584;60.468;25.126;2023-05-16T02:06:49;4.83;;;2.30;;
14975;SDS011;7584;60.468;25.126;2023-05-16T02:09:15;3.97;;;1.73;;
14975;SDS011;7584;60.468;25.126;2023-05-16T02:11:40;10.30;;;2.03;;
14975;SDS011;7584;60.468;25.126;2023-05-16T02:14:05;6.43;;;2.87;;
14975;SDS011;7584;60.468;25.126;2023-05-16T02:16:31;2.30;;;1.60;;
14975;SDS011;7584;60.468;25.126;2023-05-16T02:18:56;3.93;;;1.90;;
14975;SDS011;7584;60.468;25.126;2023-05-16T02:21:21;3.50;;;2.03;;
14975;SDS011;7584;60.468;25.126;2023-05-16T02:23:47;3.13;;;2.10;;
14975;SDS011;7584;60.468;25.126;2023-05-16T02:26:12;2.20;;;1.90;;
14975;SDS011;7584;60.468;25.126;2023-05-16T02:28:37;3.33;;;2.20;;
14975;SDS011;7584;60.468;25.126;2023-05-16T02:31:02;4.87;;;1.97;;
14975;SDS011;7584;60.468;25.126;2023-05-16T02:33:28;7.30;;;2.10;;
14975;SDS011;7584;60.468;25.126;2023-05-16T02:35:54;4.10;;;2.00;;
14975;SDS011;7584;60.468;25.126;2023-05-16T02:38:19;4.57;;;1.67;;
14975;SDS011;7584;60.468;25.126;2023-05-16T02:40:48;3.90;;;1.70;;
14975;SDS011;7584;60.468;25.126;2023-05-16T02:43:13;4.23;;;2.03;;
14975;SDS011;7584;60.468;25.126;2023-05-16T02:45:39;4.03;;;1.77;;
14975;SDS011;7584;60.468;25.126;2023-05-16T02:48:04;7.20;;;2.00;;
14975;SDS011;7584;60.468;25.126;2023-05-16T02:50:30;3.07;;;1.73;;
14975;SDS011;7584;60.468;25.126;2023-05-16T02:52:55;1.60;;;1.50;;
14975;SDS011;7584;60.468;25.126;2023-05-16T02:55:20;2.10;;;1.70;;
14975;SDS011;7584;60.468;25.126;2023-05-16T02:57:46;4.77;;;2.00;;
14975;SDS011;7584;60.468;25.126;2023-05-16T03:00:11;5.03;;;2.30;;
14975;SDS011;7584;60.468;25.126;2023-05-16T03:02:38;6.27;;;1.60;;
14975;SDS011;7584;60.468;25.126;2023-05-16T03:05:03;2.17;;;1.53;;
14975;SDS011;7584;60.468;25.126;2023-05-16T03:07:29;3.63;;;1.90;;
14975;SDS011;7584;60.468;25.126;2023-05-16T03:09:54;10.40;;;2.37;;
14975;SDS011;7584;60.468;25.126;2023-05-16T03:12:19;6.00;;;1.70;;
14975;SDS011;7584;60.468;25.126;2023-05-16T03:14:45;4.93;;;1.97;;
14975;SDS011;7584;60.468;25.126;2023-05-16T03:17:10;1.93;;;1.40;;
14975;SDS011;7584;60.468;25.126;2023-05-16T03:19:35;6.73;;;2.23;;
14975;SDS011;7584;60.468;25.126;2023-05-16T03:22:01;3.30;;;1.80;;
14975;SDS011;7584;60.468;25.126;2023-05-16T03:24:26;2.90;;;1.67;;
14975;SDS011;7584;60.468;25.126;2023-05-16T03:26:51;3.83;;;1.73;;
14975;SDS011;7584;60.468;25.126;2023-05-16T03:29:17;5.80;;;1.63;;
14975;SDS011;7584;60.468;25.126;2023-05-16T03:31:42;3.10;;;1.43;;
14975;SDS011;7584;60.468;25.126;2023-05-16T03:34:07;4.47;;;1.50;;
14975;SDS011;7584;60.468;25.126;2023-05-16T03:36:33;3.10;;;1.53;;
14975;SDS011;7584;60.468;25.126;2023-05-16T03:38:58;5.67;;;1.70;;
14975;SDS011;7584;60.468;25.126;2023-05-16T03:41:23;5.93;;;1.83;;
14975;SDS011;7584;60.468;25.126;2023-05-16T03:43:50;5.10;;;1.57;;
14975;SDS011;7584;60.468;25.126;2023-05-16T03:46:15;2.33;;;1.40;;
14975;SDS011;7584;60.468;25.126;2023-05-16T03:48:40;3.63;;;1.90;;
14975;SDS011;7584;60.468;25.126;2023-05-16T03:51:05;4.50;;;1.63;;
14975;SDS011;7584;60.468;25.126;2023-05-16T03:53:31;1.87;;;1.40;;
14975;SDS011;7584;60.468;25.126;2023-05-16T03:55:56;4.00;;;1.30;;
14975;SDS011;7584;60.468;25.126;2023-05-16T03:58:21;5.30;;;1.67;;
14975;SDS011;7584;60.468;25.126;2023-05-16T04:00:47;4.83;;;1.43;;
14975;SDS011;7584;60.468;25.126;2023-05-16T04:03:12;4.63;;;1.70;;
14975;SDS011;7584;60.468;25.126;2023-05-16T04:05:38;2.80;;;1.40;;
14975;SDS011;7584;60.468;25.126;2023-05-16T04:08:03;5.80;;;1.50;;
14975;SDS011;7584;60.468;25.126;2023-05-16T04:10:28;2.20;;;1.53;;
14975;SDS011;7584;60.468;25.126;2023-05-16T04:12:54;6.00;;;2.23;;
14975;SDS011;7584;60.468;25.126;2023-05-16T04:15:19;3.77;;;1.53;;
14975;SDS011;7584;60.468;25.126;2023-05-16T04:17:45;7.87;;;1.80;;
14975;SDS011;7584;60.468;25.126;2023-05-16T04:20:10;5.27;;;1.73;;
14975;SDS011;7584;60.468;25.126;2023-05-16T04:22:36;2.83;;;1.60;;
14975;SDS011;7584;60.468;25.126;2023-05-16T04:25:01;5.73;;;1.30;;
14975;SDS011;7584;60.468;25.126;2023-05-16T04:27:26;8.75;;;1.75;;
14975;SDS011;7584;60.468;25.126;2023-05-16T04:29:51;6.70;;;1.88;;
14975;SDS011;7584;60.468;25.126;2023-05-16T04:32:17;2.87;;;1.53;;
14975;SDS011;7584;60.468;25.126;2023-05-16T04:34:43;3.30;;;1.57;;
14975;SDS011;7584;60.468;25.126;2023-05-16T04:37:09;8.50;;;2.10;;
14975;SDS011;7584;60.468;25.126;2023-05-16T04:39:34;4.15;;;1.35;;
14975;SDS011;7584;60.468;25.126;2023-05-16T04:42:00;7.15;;;1.58;;
14975;SDS011;7584;60.468;25.126;2023-05-16T04:44:26;3.72;;;1.33;;
14975;SDS011;7584;60.468;25.126;2023-05-16T04:46:51;5.72;;;1.98;;
14975;SDS011;7584;60.468;25.126;2023-05-16T04:49:20;6.57;;;1.90;;
14975;SDS011;7584;60.468;25.126;2023-05-16T04:51:46;6.03;;;1.38;;
14975;SDS011;7584;60.468;25.126;2023-05-16T04:54:11;6.20;;;1.67;;
14975;SDS011;7584;60.468;25.126;2023-05-16T04:56:36;16.60;;;2.63;;
14975;SDS011;7584;60.468;25.126;2023-05-16T04:59:02;2.55;;;1.40;;
14975;SDS011;7584;60.468;25.126;2023-05-16T05:01:28;3.55;;;1.50;;
14975;SDS011;7584;60.468;25.126;2023-05-16T05:03:53;10.90;;;2.38;;
14975;SDS011;7584;60.468;25.126;2023-05-16T05:06:19;30.70;;;3.25;;
14975;SDS011;7584;60.468;25.126;2023-05-16T05:08:44;4.00;;;1.40;;
14975;SDS011;7584;60.468;25.126;2023-05-16T05:11:09;7.07;;;1.50;;
14975;SDS011;7584;60.468;25.126;2023-05-16T05:13:35;13.38;;;2.65;;
14975;SDS011;7584;60.468;25.126;2023-05-16T05:16:00;3.67;;;1.92;;
14975;SDS011;7584;60.468;25.126;2023-05-16T05:18:28;7.63;;;1.88;;
14975;SDS011;7584;60.468;25.126;2023-05-16T05:20:54;4.28;;;1.52;;
14975;SDS011;7584;60.468;25.126;2023-05-16T05:23:19;4.75;;;1.95;;
14975;SDS011;7584;60.468;25.126;2023-05-16T05:25:44;19.27;;;3.47;;
14975;SDS011;7584;60.468;25.126;2023-05-16T05:28:10;2.15;;;1.50;;
14975;SDS011;7584;60.468;25.126;2023-05-16T05:30:35;5.78;;;1.77;;
14975;SDS011;7584;60.468;25.126;2023-05-16T05:33:00;4.18;;;1.67;;
14975;SDS011;7584;60.468;25.126;2023-05-16T05:35:26;3.47;;;1.60;;
14975;SDS011;7584;60.468;25.126;2023-05-16T05:37:51;16.20;;;2.88;;
14975;SDS011;7584;60.468;25.126;2023-05-16T05:40:16;7.57;;;1.85;;
14975;SDS011;7584;60.468;25.126;2023-05-16T05:42:42;2.63;;;1.55;;
14975;SDS011;7584;60.468;25.126;2023-05-16T05:45:07;3.47;;;1.60;;
14975;SDS011;7584;60.468;25.126;2023-05-16T05:47:32;3.83;;;1.77;;
14975;SDS011;7584;60.468;25.126;2023-05-16T05:49:58;4.45;;;2.10;;
14975;SDS011;7584;60.468;25.126;2023-05-16T05:52:23;7.50;;;1.85;;
14975;SDS011;7584;60.468;25.126;2023-05-16T05:54:48;4.03;;;1.58;;
14975;SDS011;7584;60.468;25.126;2023-05-16T05:57:14;3.95;;;1.50;;
14975;SDS011;7584;60.468;25.126;2023-05-16T05:59:39;5.80;;;1.65;;
14975;SDS011;7584;60.468;25.126;2023-05-16T06:02:05;8.25;;;1.50;;
14975;SDS011;7584;60.468;25.126;2023-05-16T06:04:30;5.05;;;1.95;;
14975;SDS011;7584;60.468;25.126;2023-05-16T06:06:55;4.43;;;1.50;;
14975;SDS011;7584;60.468;25.126;2023-05-16T06:09:20;7.88;;;1.83;;
14975;SDS011;7584;60.468;25.126;2023-05-16T06:11:46;6.03;;;1.77;;
14975;SDS011;7584;60.468;25.126;2023-05-16T06:14:13;5.72;;;1.90;;
14975;SDS011;7584;60.468;25.126;2023-05-16T06:16:39;5.07;;;1.85;;
14975;SDS011;7584;60.468;25.126;2023-05-16T06:19:05;5.40;;;1.80;;
14975;SDS011;7584;60.468;25.126;2023-05-16T06:21:30;5.82;;;1.65;;
14975;SDS011;7584;60.468;25.126;2023-05-16T06:23:57;2.33;;;1.73;;
14975;SDS011;7584;60.468;25.126;2023-05-16T06:26:22;3.92;;;1.42;;
14975;SDS011;7584;60.468;25.126;2023-05-16T06:28:48;4.28;;;1.83;;
14975;SDS011;7584;60.468;25.126;2023-05-16T06:31:13;2.72;;;1.88;;
14975;SDS011;7584;60.468;25.126;2023-05-16T06:33:39;7.80;;;2.10;;
14975;SDS011;7584;60.468;25.126;2023-05-16T06:36:04;4.65;;;2.08;;
14975;SDS011;7584;60.468;25.126;2023-05-16T06:38:30;2.60;;;2.05;;
14975;SDS011;7584;60.468;25.126;2023-05-16T06:40:55;5.70;;;1.95;;
14975;SDS011;7584;60.468;25.126;2023-05-16T06:43:20;5.38;;;2.00;;
14975;SDS011;7584;60.468;25.126;2023-05-16T06:45:46;6.30;;;2.22;;
14975;SDS011;7584;60.468;25.126;2023-05-16T06:48:12;6.40;;;1.75;;
14975;SDS011;7584;60.468;25.126;2023-05-16T06:50:39;6.30;;;1.77;;
14975;SDS011;7584;60.468;25.126;2023-05-16T06:53:04;4.57;;;1.95;;
14975;SDS011;7584;60.468;25.126;2023-05-16T06:55:31;5.10;;;2.17;;
14975;SDS011;7584;60.468;25.126;2023-05-16T06:57:56;3.78;;;2.05;;
14975;SDS011;7584;60.468;25.126;2023-05-16T07:00:21;3.47;;;2.30;;
14975;SDS011;7584;60.468;25.126;2023-05-16T07:02:47;5.85;;;1.92;;
14975;SDS011;7584;60.468;25.126;2023-05-16T07:05:12;4.20;;;2.25;;
14975;SDS011;7584;60.468;25.126;2023-05-16T07:07:37;5.28;;;1.92;;
14975;SDS011;7584;60.468;25.126;2023-05-16T07:10:03;3.42;;;1.98;;
14975;SDS011;7584;60.468;25.126;2023-05-16T07:12:28;4.80;;;2.28;;
14975;SDS011;7584;60.468;25.126;2023-05-16T07:14:53;6.28;;;2.35;;
14975;SDS011;7584;60.468;25.126;2023-05-16T07:17:19;4.30;;;2.15;;
14975;SDS011;7584;60.468;25.126;2023-05-16T07:19:44;4.63;;;2.08;;
14975;SDS011;7584;60.468;25.126;2023-05-16T07:22:10;9.48;;;2.22;;
14975;SDS011;7584;60.468;25.126;2023-05-16T07:24:36;3.67;;;2.13;;
14975;SDS011;7584;60.468;25.126;2023-05-16T07:27:01;7.13;;;2.10;;
14975;SDS011;7584;60.468;25.126;2023-05-16T07:29:26;5.88;;;2.38;;
14975;SDS011;7584;60.468;25.126;2023-05-16T07:31:52;5.38;;;2.45;;
14975;SDS011;7584;60.468;25.126;2023-05-16T07:34:17;5.33;;;2.20;;
14975;SDS011;7584;60.468;25.126;2023-05-16T07:36:42;6.18;;;2.20;;
14975;SDS011;7584;60.468;25.126;2023-05-16T07:39:08;4.32;;;2.47;;
14975;SDS011;7584;60.468;25.126;2023-05-16T07:41:33;4.32;;;2.00;;
14975;SDS011;7584;60.468;25.126;2023-05-16T07:43:58;3.63;;;2.13;;
14975;SDS011;7584;60.468;25.126;2023-05-16T07:46:23;5.27;;;2.40;;
14975;SDS011;7584;60.468;25.126;2023-05-16T07:48:49;5.00;;;2.30;;
14975;SDS011;7584;60.468;25.126;2023-05-16T07:51:14;3.45;;;2.45;;
14975;SDS011;7584;60.468;25.126;2023-05-16T07:53:40;2.80;;;2.10;;
14975;SDS011;7584;60.468;25.126;2023-05-16T07:56:06;5.85;;;2.85;;
14975;SDS011;7584;60.468;25.126;2023-05-16T07:58:31;9.15;;;3.13;;
14975;SDS011;7584;60.468;25.126;2023-05-16T08:00:56;4.30;;;2.70;;
14975;SDS011;7584;60.468;25.126;2023-05-16T08:03:22;7.53;;;2.90;;
14975;SDS011;7584;60.468;25.126;2023-05-16T08:05:47;7.20;;;2.80;;
14975;SDS011;7584;60.468;25.126;2023-05-16T08:08:13;3.28;;;2.40;;
14975;SDS011;7584;60.468;25.126;2023-05-16T08:10:38;5.17;;;2.90;;
14975;SDS011;7584;60.468;25.126;2023-05-16T08:13:03;3.70;;;2.70;;
14975;SDS011;7584;60.468;25.126;2023-05-16T08:15:29;6.83;;;3.17;;
14975;SDS011;7584;60.468;25.126;2023-05-16T08:17:57;7.70;;;3.20;;
14975;SDS011;7584;60.468;25.126;2023-05-16T08:20:26;4.60;;;2.70;;
14975;SDS011;7584;60.468;25.126;2023-05-16T08:22:52;5.27;;;2.90;;
14975;SDS011;7584;60.468;25.126;2023-05-16T08:25:17;5.60;;;3.37;;
14975;SDS011;7584;60.468;25.126;2023-05-16T08:27:45;5.93;;;3.23;;
14975;SDS011;7584;60.468;25.126;2023-05-16T08:30:11;6.73;;;3.60;;
14975;SDS011;7584;60.468;25.126;2023-05-16T08:32:37;7.47;;;3.37;;
14975;SDS011;7584;60.468;25.126;2023-05-16T08:35:02;4.83;;;3.50;;
14975;SDS011;7584;60.468;25.126;2023-05-16T08:37:27;9.87;;;3.30;;
14975;SDS011;7584;60.468;25.126;2023-05-16T08:39:53;4.03;;;3.00;;
14975;SDS011;7584;60.468;25.126;2023-05-16T08:42:18;3.20;;;2.90;;
14975;SDS011;7584;60.468;25.126;2023-05-16T08:44:43;3.83;;;3.43;;
14975;SDS011;7584;60.468;25.126;2023-05-16T08:47:10;5.07;;;3.50;;
14975;SDS011;7584;60.468;25.126;2023-05-16T08:49:36;8.47;;;4.10;;
14975;SDS011;7584;60.468;25.126;2023-05-16T08:52:03;6.50;;;3.22;;
14975;SDS011;7584;60.468;25.126;2023-05-16T08:54:30;6.77;;;3.80;;
14975;SDS011;7584;60.468;25.126;2023-05-16T08:56:57;4.70;;;3.67;;
14975;SDS011;7584;60.468;25.126;2023-05-16T08:59:22;7.13;;;3.53;;
14975;SDS011;7584;60.468;25.126;2023-05-16T09:01:48;6.90;;;3.67;;
14975;SDS011;7584;60.468;25.126;2023-05-16T09:04:14;6.87;;;3.97;;
14975;SDS011;7584;60.468;25.126;2023-05-16T09:06:40;11.03;;;4.27;;
14975;SDS011;7584;60.468;25.126;2023-05-16T09:09:05;6.57;;;4.23;;
14975;SDS011;7584;60.468;25.126;2023-05-16T09:11:32;4.90;;;3.97;;
14975;SDS011;7584;60.468;25.126;2023-05-16T09:13:57;7.67;;;4.20;;
14975;SDS011;7584;60.468;25.126;2023-05-16T09:16:23;6.07;;;4.30;;
14975;SDS011;7584;60.468;25.126;2023-05-16T09:18:52;8.40;;;4.73;;
14975;SDS011;7584;60.468;25.126;2023-05-16T09:21:18;6.60;;;4.40;;
14975;SDS011;7584;60.468;25.126;2023-05-16T09:23:44;7.07;;;4.53;;
14975;SDS011;7584;60.468;25.126;2023-05-16T09:26:12;4.13;;;3.73;;
14975;SDS011;7584;60.468;25.126;2023-05-16T09:28:39;9.90;;;4.20;;
14975;SDS011;7584;60.468;25.126;2023-05-16T09:31:18;5.20;;;4.07;;
14975;SDS011;7584;60.468;25.126;2023-05-16T09:33:43;8.27;;;4.20;;
14975;SDS011;7584;60.468;25.126;2023-05-16T09:36:08;6.97;;;4.40;;
14975;SDS011;7584;60.468;25.126;2023-05-16T09:38:34;10.67;;;4.33;;
14975;SDS011;7584;60.468;25.126;2023-05-16T09:40:59;8.23;;;4.20;;
14975;SDS011;7584;60.468;25.126;2023-05-16T09:43:26;6.30;;;4.10;;
14975;SDS011;7584;60.468;25.126;2023-05-16T09:45:51;5.53;;;4.03;;
14975;SDS011;7584;60.468;25.126;2023-05-16T09:48:17;9.63;;;4.40;;
14975;SDS011;7584;60.468;25.126;2023-05-16T09:50:49;6.00;;;4.33;;
14975;SDS011;7584;60.468;25.126;2023-05-16T09:53:28;8.03;;;4.40;;
14975;SDS011;7584;60.468;25.126;2023-05-16T09:56:00;7.73;;;4.73;;
14975;SDS011;7584;60.468;25.126;2023-05-16T09:58:29;7.07;;;4.63;;
14975;SDS011;7584;60.468;25.126;2023-05-16T10:00:55;9.60;;;4.90;;
14975;SDS011;7584;60.468;25.126;2023-05-16T10:03:21;9.87;;;4.70;;
14975;SDS011;7584;60.468;25.126;2023-05-16T10:05:47;8.27;;;5.17;;
14975;SDS011;7584;60.468;25.126;2023-05-16T10:08:12;8.47;;;5.20;;
14975;SDS011;7584;60.468;25.126;2023-05-16T10:10:39;6.20;;;4.73;;
14975;SDS011;7584;60.468;25.126;2023-05-16T10:13:05;9.07;;;5.20;;
14975;SDS011;7584;60.468;25.126;2023-05-16T10:15:31;9.50;;;5.20;;
14975;SDS011;7584;60.468;25.126;2023-05-16T10:17:57;8.03;;;5.60;;
14975;SDS011;7584;60.468;25.126;2023-05-16T10:20:24;10.07;;;5.60;;
14975;SDS011;7584;60.468;25.126;2023-05-16T10:22:50;9.27;;;6.00;;
14975;SDS011;7584;60.468;25.126;2023-05-16T10:25:25;10.23;;;5.37;;
14975;SDS011;7584;60.468;25.126;2023-05-16T10:27:50;7.27;;;5.93;;
14975;SDS011;7584;60.468;25.126;2023-05-16T10:30:16;10.63;;;6.47;;
14975;SDS011;7584;60.468;25.126;2023-05-16T10:32:42;9.63;;;6.30;;
14975;SDS011;7584;60.468;25.126;2023-05-16T10:35:07;8.10;;;5.83;;
14975;SDS011;7584;60.468;25.126;2023-05-16T10:37:33;9.80;;;5.70;;
14975;SDS011;7584;60.468;25.126;2023-05-16T10:39:58;13.10;;;6.20;;
14975;SDS011;7584;60.468;25.126;2023-05-16T10:42:25;11.80;;;6.13;;
14975;SDS011;7584;60.468;25.126;2023-05-16T10:44:53;10.80;;;6.00;;
14975;SDS011;7584;60.468;25.126;2023-05-16T10:47:21;10.20;;;6.20;;
14975;SDS011;7584;60.468;25.126;2023-05-16T10:49:47;9.13;;;6.23;;
14975;SDS011;7584;60.468;25.126;2023-05-16T10:52:12;10.37;;;6.47;;
14975;SDS011;7584;60.468;25.126;2023-05-16T10:54:40;7.97;;;6.67;;
14975;SDS011;7584;60.468;25.126;2023-05-16T10:57:16;8.13;;;6.43;;
14975;SDS011;7584;60.468;25.126;2023-05-16T10:59:45;8.43;;;7.13;;
14975;SDS011;7584;60.468;25.126;2023-05-16T11:02:21;10.70;;;6.60;;
14975;SDS011;7584;60.468;25.126;2023-05-16T11:04:56;8.03;;;6.70;;
14975;SDS011;7584;60.468;25.126;2023-05-16T11:07:23;8.30;;;7.13;;
14975;SDS011;7584;60.468;25.126;2023-05-16T11:10:01;8.70;;;6.80;;
14975;SDS011;7584;60.468;25.126;2023-05-16T11:12:34;7.93;;;6.07;;
14975;SDS011;7584;60.468;25.126;2023-05-16T11:15:00;12.73;;;6.27;;
14975;SDS011;7584;60.468;25.126;2023-05-16T11:17:25;11.67;;;6.10;;
14975;SDS011;7584;60.468;25.126;2023-05-16T11:19:56;8.57;;;6.43;;
14975;SDS011;7584;60.468;25.126;2023-05-16T11:27:29;10.53;;;5.87;;
14975;SDS011;7584;60.468;25.126;2023-05-16T11:29:57;8.53;;;5.67;;
14975;SDS011;7584;60.468;25.126;2023-05-16T11:32:23;5.70;;;4.83;;
14975;SDS011;7584;60.468;25.126;2023-05-16T11:34:51;7.60;;;5.57;;
14975;SDS011;7584;60.468;25.126;2023-05-16T11:37:17;8.50;;;5.30;;
14975;SDS011;7584;60.468;25.126;2023-05-16T11:39:44;9.80;;;6.17;;
14975;SDS011;7584;60.468;25.126;2023-05-16T11:42:09;9.23;;;5.87;;
14975;SDS011;7584;60.468;25.126;2023-05-16T11:44:34;5.73;;;5.13;;
14975;SDS011;7584;60.468;25.126;2023-05-16T11:47:00;7.40;;;5.97;;
14975;SDS011;7584;60.468;25.126;2023-05-16T11:49:26;12.60;;;6.10;;
14975;SDS011;7584;60.468;25.126;2023-05-16T11:51:53;9.07;;;5.57;;
14975;SDS011;7584;60.468;25.126;2023-05-16T11:54:18;8.27;;;6.03;;
14975;SDS011;7584;60.468;25.126;2023-05-16T11:56:43;10.77;;;6.30;;
14975;SDS011;7584;60.468;25.126;2023-05-16T11:59:09;7.67;;;5.97;;
14975;SDS011;7584;60.468;25.126;2023-05-16T12:01:35;9.40;;;5.97;;
14975;SDS011;7584;60.468;25.126;2023-05-16T12:04:01;10.50;;;6.20;;
14975;SDS011;7584;60.468;25.126;2023-05-16T12:06:28;10.67;;;6.23;;
14975;SDS011;7584;60.468;25.126;2023-05-16T12:08:55;8.50;;;6.50;;
14975;SDS011;7584;60.468;25.126;2023-05-16T12:11:21;7.83;;;5.97;;
14975;SDS011;7584;60.468;25.126;2023-05-16T12:13:47;12.67;;;6.80;;
14975;SDS011;7584;60.468;25.126;2023-05-16T12:16:12;8.77;;;6.57;;
14975;SDS011;7584;60.468;25.126;2023-05-16T12:18:37;9.63;;;6.63;;
14975;SDS011;7584;60.468;25.126;2023-05-16T12:21:06;12.87;;;7.07;;
14975;SDS011;7584;60.468;25.126;2023-05-16T12:23:32;11.03;;;7.50;;
14975;SDS011;7584;60.468;25.126;2023-05-16T12:25:57;11.40;;;7.73;;
14975;SDS011;7584;60.468;25.126;2023-05-16T12:28:25;7.80;;;6.80;;
14975;SDS011;7584;60.468;25.126;2023-05-16T12:30:54;10.43;;;6.63;;
14975;SDS011;7584;60.468;25.126;2023-05-16T12:33:20;8.77;;;6.90;;
14975;SDS011;7584;60.468;25.126;2023-05-16T12:35:45;7.27;;;6.33;;
14975;SDS011;7584;60.468;25.126;2023-05-16T12:38:12;8.97;;;6.50;;
14975;SDS011;7584;60.468;25.126;2023-05-16T12:40:38;9.70;;;6.70;;
14975;SDS011;7584;60.468;25.126;2023-05-16T12:43:13;10.33;;;6.53;;
14975;SDS011;7584;60.468;25.126;2023-05-16T12:45:39;9.20;;;6.33;;
14975;SDS011;7584;60.468;25.126;2023-05-16T12:48:10;9.93;;;6.97;;
14975;SDS011;7584;60.468;25.126;2023-05-16T12:50:36;7.90;;;6.17;;
14975;SDS011;7584;60.468;25.126;2023-05-16T12:53:02;8.73;;;6.10;;
14975;SDS011;7584;60.468;25.126;2023-05-16T12:55:28;7.27;;;6.30;;
14975;SDS011;7584;60.468;25.126;2023-05-16T12:57:54;8.10;;;5.87;;
14975;SDS011;7584;60.468;25.126;2023-05-16T13:00:19;13.73;;;6.90;;
14975;SDS011;7584;60.468;25.126;2023-05-16T13:02:45;8.67;;;6.63;;
14975;SDS011;7584;60.468;25.126;2023-05-16T13:05:11;13.77;;;6.93;;
14975;SDS011;7584;60.468;25.126;2023-05-16T13:07:37;9.43;;;5.57;;
14975;SDS011;7584;60.468;25.126;2023-05-16T13:10:05;9.23;;;6.40;;
14975;SDS011;7584;60.468;25.126;2023-05-16T13:12:30;12.27;;;6.77;;
14975;SDS011;7584;60.468;25.126;2023-05-16T13:14:56;9.50;;;6.40;;
14975;SDS011;7584;60.468;25.126;2023-05-16T13:17:21;8.53;;;6.00;;
14975;SDS011;7584;60.468;25.126;2023-05-16T13:19:48;8.80;;;5.90;;
14975;SDS011;7584;60.468;25.126;2023-05-16T13:22:13;8.77;;;5.57;;
14975;SDS011;7584;60.468;25.126;2023-05-16T13:24:38;8.10;;;4.90;;
14975;SDS011;7584;60.468;25.126;2023-05-16T13:27:04;8.03;;;5.37;;
14975;SDS011;7584;60.468;25.126;2023-05-16T13:29:29;6.60;;;5.97;;
14975;SDS011;7584;60.468;25.126;2023-05-16T13:31:54;10.83;;;5.43;;
14975;SDS011;7584;60.468;25.126;2023-05-16T13:34:20;9.97;;;5.60;;
14975;SDS011;7584;60.468;25.126;2023-05-16T13:36:45;8.23;;;5.20;;
14975;SDS011;7584;60.468;25.126;2023-05-16T13:39:11;11.37;;;6.23;;
14975;SDS011;7584;60.468;25.126;2023-05-16T13:41:37;7.70;;;5.53;;
14975;SDS011;7584;60.468;25.126;2023-05-16T13:44:04;8.63;;;5.60;;
14975;SDS011;7584;60.468;25.126;2023-05-16T13:46:29;9.03;;;5.93;;
14975;SDS011;7584;60.468;25.126;2023-05-16T13:48:55;12.40;;;5.87;;
14975;SDS011;7584;60.468;25.126;2023-05-16T13:51:20;9.77;;;5.57;;
14975;SDS011;7584;60.468;25.126;2023-05-16T13:53:45;22.27;;;16.17;;
14975;SDS011;7584;60.468;25.126;2023-05-16T13:56:11;15.13;;;9.87;;
14975;SDS011;7584;60.468;25.126;2023-05-16T13:58:36;13.50;;;8.17;;
14975;SDS011;7584;60.468;25.126;2023-05-16T14:01:01;78.53;;;38.57;;
14975;SDS011;7584;60.468;25.126;2023-05-16T14:03:27;26.93;;;13.33;;
14975;SDS011;7584;60.468;25.126;2023-05-16T14:05:52;14.23;;;8.20;;
14975;SDS011;7584;60.468;25.126;2023-05-16T14:08:18;25.53;;;18.77;;
14975;SDS011;7584;60.468;25.126;2023-05-16T14:10:43;44.43;;;23.90;;
14975;SDS011;7584;60.468;25.126;2023-05-16T14:13:08;18.43;;;8.77;;
14975;SDS011;7584;60.468;25.126;2023-05-16T14:15:34;12.30;;;6.40;;
14975;SDS011;7584;60.468;25.126;2023-05-16T14:17:59;10.80;;;7.03;;
14975;SDS011;7584;60.468;25.126;2023-05-16T14:20:25;13.00;;;7.17;;
14975;SDS011;7584;60.468;25.126;2023-05-16T14:22:50;14.10;;;6.97;;
14975;SDS011;7584;60.468;25.126;2023-05-16T14:25:16;11.73;;;7.57;;
14975;SDS011;7584;60.468;25.126;2023-05-16T14:27:41;20.17;;;11.43;;
14975;SDS011;7584;60.468;25.126;2023-05-16T14:30:07;14.43;;;8.63;;
14975;SDS011;7584;60.468;25.126;2023-05-16T14:32:33;18.57;;;9.87;;
14975;SDS011;7584;60.468;25.126;2023-05-16T14:34:58;14.90;;;9.27;;
14975;SDS011;7584;60.468;25.126;2023-05-16T14:37:24;10.90;;;6.27;;
14975;SDS011;7584;60.468;25.126;2023-05-16T14:39:49;7.20;;;6.10;;
14975;SDS011;7584;60.468;25.126;2023-05-16T14:42:15;9.33;;;6.77;;
14975;SDS011;7584;60.468;25.126;2023-05-16T14:44:40;7.43;;;6.63;;
14975;SDS011;7584;60.468;25.126;2023-05-16T14:47:06;10.33;;;6.30;;
14975;SDS011;7584;60.468;25.126;2023-05-16T14:49:31;8.00;;;6.50;;
14975;SDS011;7584;60.468;25.126;2023-05-16T14:51:56;9.13;;;6.67;;
14975;SDS011;7584;60.468;25.126;2023-05-16T14:54:22;10.87;;;6.47;;
14975;SDS011;7584;60.468;25.126;2023-05-16T14:56:47;8.57;;;6.40;;
14975;SDS011;7584;60.468;25.126;2023-05-16T14:59:12;9.17;;;6.77;;